sensor_id;sensor_type;location;lat;lon;timestamp;pressure;altitude;pressure_sealevel;temperature;humidity
41654;BME280;68687;52.030;7.110;2023-07-30T00:01:30;100164.09;;;14.90;100.00
41654;BME280;68687;52.030;7.110;2023-07-30T00:03:55;100165.97;;;14.90;100.00
41654;BME280;68687;52.030;7.110;2023-07-30T00:06:21;100176.13;;;14.69;100.00
41654;BME280;68687;52.030;7.110;2023-07-30T00:08:46;100169.88;;;14.69;100.00
41654;BME280;68687;52.030;7.110;2023-07-30T00:11:11;100162.78;;;14.74;100.00
41654;BME280;68687;52.030;7.110;2023-07-30T00:13:37;100164.78;;;14.79;100.00
41654;BME280;68687;52.030;7.110;2023-07-30T00:16:02;100167.63;;;14.66;100.00
41654;BME280;68687;52.030;7.110;2023-07-30T00:18:28;100161.56;;;14.70;100.00
41654;BME280;68687;52.030;7.110;2023-07-30T00:20:53;100164.50;;;14.69;100.00
41654;BME280;68687;52.030;7.110;2023-07-30T00:23:19;100162.84;;;14.68;100.00
41654;BME280;68687;52.030;7.110;2023-07-30T00:25:44;100148.81;;;14.77;100.00
41654;BME280;68687;52.030;7.110;2023-07-30T00:28:09;100164.09;;;14.65;100.00
41654;BME280;68687;52.030;7.110;2023-07-30T00:30:35;100158.63;;;14.72;100.00
41654;BME280;68687;52.030;7.110;2023-07-30T00:33:00;100175.19;;;14.82;100.00
41654;BME280;68687;52.030;7.110;2023-07-30T00:35:26;100160.25;;;14.79;100.00
41654;BME280;68687;52.030;7.110;2023-07-30T00:37:51;100162.28;;;14.84;100.00
41654;BME280;68687;52.030;7.110;2023-07-30T00:40:17;100160.56;;;14.90;100.00
41654;BME280;68687;52.030;7.110;2023-07-30T00:42:43;100150.88;;;14.82;100.00
41654;BME280;68687;52.030;7.110;2023-07-30T00:45:10;100155.53;;;14.93;100.00
41654;BME280;68687;52.030;7.110;2023-07-30T00:47:37;100164.63;;;14.99;100.00
41654;BME280;68687;52.030;7.110;2023-07-30T00:50:05;100164.38;;;15.00;100.00
41654;BME280;68687;52.030;7.110;2023-07-30T00:52:30;100153.06;;;14.92;100.00
41654;BME280;68687;52.030;7.110;2023-07-30T00:54:57;100158.09;;;14.88;100.00
41654;BME280;68687;52.030;7.110;2023-07-30T00:57:23;100156.44;;;14.87;100.00
41654;BME280;68687;52.030;7.110;2023-07-30T00:59:49;100170.25;;;14.97;100.00
41654;BME280;68687;52.030;7.110;2023-07-30T01:02:15;100165.66;;;14.79;100.00
41654;BME280;68687;52.030;7.110;2023-07-30T01:04:42;100169.59;;;14.77;100.00
41654;BME280;68687;52.030;7.110;2023-07-30T01:07:07;100172.75;;;14.74;100.00
41654;BME280;68687;52.030;7.110;2023-07-30T01:09:33;100183.06;;;14.83;100.00
41654;BME280;68687;52.030;7.110;2023-07-30T01:11:59;100177.00;;;14.88;100.00
41654;BME280;68687;52.030;7.110;2023-07-30T01:14:25;100176.84;;;14.83;100.00
41654;BME280;68687;52.030;7.110;2023-07-30T01:16:52;100188.25;;;14.85;100.00
41654;BME280;68687;52.030;7.110;2023-07-30T01:19:17;100173.13;;;14.77;100.00
41654;BME280;68687;52.030;7.110;2023-07-30T01:21:43;100182.72;;;14.73;100.00
41654;BME280;68687;52.030;7.110;2023-07-30T01:24:08;100183.78;;;14.72;100.00
41654;BME280;68687;52.030;7.110;2023-07-30T01:26:44;100187.47;;;14.78;100.00
41654;BME280;68687;52.030;7.110;2023-07-30T01:29:25;100180.09;;;14.67;100.00
41654;BME280;68687;52.030;7.110;2023-07-30T01:31:56;100187.44;;;14.60;100.00
41654;BME280;68687;52.030;7.110;2023-07-30T01:34:27;100192.41;;;14.63;100.00
41654;BME280;68687;52.030;7.110;2023-07-30T01:36:54;100191.25;;;14.52;100.00
41654;BME280;68687;52.030;7.110;2023-07-30T01:39:22;100190.75;;;14.62;100.00
41654;BME280;68687;52.030;7.110;2023-07-30T01:41:48;100206.13;;;14.61;100.00
41654;BME280;68687;52.030;7.110;2023-07-30T01:44:13;100201.19;;;14.51;100.00
41654;BME280;68687;52.030;7.110;2023-07-30T01:46:39;100206.72;;;14.63;100.00
41654;BME280;68687;52.030;7.110;2023-07-30T01:49:04;100211.31;;;14.63;100.00
41654;BME280;68687;52.030;7.110;2023-07-30T01:51:29;100209.72;;;14.55;100.00
41654;BME280;68687;52.030;7.110;2023-07-30T01:53:55;100216.38;;;14.52;100.00
41654;BME280;68687;52.030;7.110;2023-07-30T01:56:20;100208.91;;;14.48;100.00
41654;BME280;68687;52.030;7.110;2023-07-30T01:58:45;100198.31;;;14.46;100.00
41654;BME280;68687;52.030;7.110;2023-07-30T02:01:11;100202.28;;;14.44;100.00
41654;BME280;68687;52.030;7.110;2023-07-30T02:03:36;100203.06;;;14.51;100.00
41654;BME280;68687;52.030;7.110;2023-07-30T02:06:01;100225.78;;;14.43;100.00
41654;BME280;68687;52.030;7.110;2023-07-30T02:08:27;100213.88;;;14.51;100.00
41654;BME280;68687;52.030;7.110;2023-07-30T02:10:59;100219.72;;;14.41;100.00
41654;BME280;68687;52.030;7.110;2023-07-30T02:13:25;100215.88;;;14.24;100.00
41654;BME280;68687;52.030;7.110;2023-07-30T02:15:51;100213.81;;;14.26;100.00
41654;BME280;68687;52.030;7.110;2023-07-30T02:18:16;100216.94;;;14.23;100.00
41654;BME280;68687;52.030;7.110;2023-07-30T02:20:41;100216.31;;;14.28;100.00
41654;BME280;68687;52.030;7.110;2023-07-30T02:23:07;100219.72;;;14.41;100.00
41654;BME280;68687;52.030;7.110;2023-07-30T02:25:32;100221.19;;;14.44;100.00
41654;BME280;68687;52.030;7.110;2023-07-30T02:27:59;100210.41;;;14.37;100.00
41654;BME280;68687;52.030;7.110;2023-07-30T02:30:24;100198.56;;;14.38;100.00
41654;BME280;68687;52.030;7.110;2023-07-30T02:32:50;100223.47;;;14.47;100.00
41654;BME280;68687;52.030;7.110;2023-07-30T02:35:15;100216.44;;;14.39;100.00
41654;BME280;68687;52.030;7.110;2023-07-30T02:37:40;100210.47;;;14.31;100.00
41654;BME280;68687;52.030;7.110;2023-07-30T02:40:06;100212.69;;;14.40;100.00
41654;BME280;68687;52.030;7.110;2023-07-30T02:42:32;100201.38;;;14.25;100.00
41654;BME280;68687;52.030;7.110;2023-07-30T02:44:57;100210.94;;;14.21;100.00
41654;BME280;68687;52.030;7.110;2023-07-30T02:47:22;100199.13;;;14.15;100.00
41654;BME280;68687;52.030;7.110;2023-07-30T02:49:48;100201.66;;;14.10;100.00
41654;BME280;68687;52.030;7.110;2023-07-30T02:52:13;100206.41;;;14.15;100.00
41654;BME280;68687;52.030;7.110;2023-07-30T02:54:38;100212.03;;;14.13;100.00
41654;BME280;68687;52.030;7.110;2023-07-30T02:57:04;100209.97;;;14.09;100.00
41654;BME280;68687;52.030;7.110;2023-07-30T02:59:29;100216.47;;;14.01;100.00
41654;BME280;68687;52.030;7.110;2023-07-30T03:01:55;100208.38;;;13.95;100.00
41654;BME280;68687;52.030;7.110;2023-07-30T03:04:20;100200.72;;;13.91;100.00
41654;BME280;68687;52.030;7.110;2023-07-30T03:06:45;100207.59;;;13.87;100.00
41654;BME280;68687;52.030;7.110;2023-07-30T03:09:11;100220.44;;;13.92;100.00
41654;BME280;68687;52.030;7.110;2023-07-30T03:11:36;100220.03;;;13.88;100.00
41654;BME280;68687;52.030;7.110;2023-07-30T03:14:02;100214.41;;;13.90;100.00
41654;BME280;68687;52.030;7.110;2023-07-30T03:16:27;100216.91;;;13.91;100.00
41654;BME280;68687;52.030;7.110;2023-07-30T03:18:52;100217.84;;;13.72;100.00
41654;BME280;68687;52.030;7.110;2023-07-30T03:21:18;100206.22;;;13.72;100.00
41654;BME280;68687;52.030;7.110;2023-07-30T03:23:43;100193.91;;;13.82;100.00
41654;BME280;68687;52.030;7.110;2023-07-30T03:26:10;100206.66;;;13.62;100.00
41654;BME280;68687;52.030;7.110;2023-07-30T03:28:35;100215.97;;;13.66;100.00
41654;BME280;68687;52.030;7.110;2023-07-30T03:31:01;100210.63;;;13.59;100.00
41654;BME280;68687;52.030;7.110;2023-07-30T03:33:26;100203.97;;;13.62;100.00
41654;BME280;68687;52.030;7.110;2023-07-30T03:35:52;100196.72;;;13.56;100.00
41654;BME280;68687;52.030;7.110;2023-07-30T03:38:17;100201.72;;;13.52;100.00
41654;BME280;68687;52.030;7.110;2023-07-30T03:40:43;100201.50;;;13.54;100.00
41654;BME280;68687;52.030;7.110;2023-07-30T03:43:08;100200.91;;;13.52;100.00
41654;BME280;68687;52.030;7.110;2023-07-30T03:45:34;100191.34;;;13.56;100.00
41654;BME280;68687;52.030;7.110;2023-07-30T03:47:59;100190.56;;;13.42;100.00
41654;BME280;68687;52.030;7.110;2023-07-30T03:50:24;100199.63;;;13.61;100.00
41654;BME280;68687;52.030;7.110;2023-07-30T03:52:50;100207.09;;;13.59;100.00
41654;BME280;68687;52.030;7.110;2023-07-30T03:55:15;100208.94;;;13.65;100.00
41654;BME280;68687;52.030;7.110;2023-07-30T03:57:41;100206.47;;;13.57;100.00
41654;BME280;68687;52.030;7.110;2023-07-30T04:00:07;100200.03;;;13.58;100.00
41654;BME280;68687;52.030;7.110;2023-07-30T04:02:32;100206.91;;;13.54;100.00
41654;BME280;68687;52.030;7.110;2023-07-30T04:04:58;100225.31;;;13.70;100.00
41654;BME280;68687;52.030;7.110;2023-07-30T04:07:23;100218.31;;;13.56;100.00
41654;BME280;68687;52.030;7.110;2023-07-30T04:09:49;100204.41;;;13.59;100.00
41654;BME280;68687;52.030;7.110;2023-07-30T04:12:14;100212.91;;;13.56;100.00
41654;BME280;68687;52.030;7.110;2023-07-30T04:14:39;100213.31;;;13.59;100.00
41654;BME280;68687;52.030;7.110;2023-07-30T04:17:05;100226.59;;;13.61;100.00
41654;BME280;68687;52.030;7.110;2023-07-30T04:19:30;100234.09;;;13.52;100.00
41654;BME280;68687;52.030;7.110;2023-07-30T04:21:56;100228.06;;;13.57;100.00
41654;BME280;68687;52.030;7.110;2023-07-30T04:24:21;100221.00;;;13.56;100.00
41654;BME280;68687;52.030;7.110;2023-07-30T04:26:46;100226.97;;;13.65;100.00
41654;BME280;68687;52.030;7.110;2023-07-30T04:29:12;100235.06;;;13.65;100.00
41654;BME280;68687;52.030;7.110;2023-07-30T04:31:39;100227.44;;;13.55;100.00
41654;BME280;68687;52.030;7.110;2023-07-30T04:34:04;100237.78;;;13.71;100.00
41654;BME280;68687;52.030;7.110;2023-07-30T04:36:29;100237.78;;;13.58;100.00
41654;BME280;68687;52.030;7.110;2023-07-30T04:38:54;100241.09;;;13.60;100.00
41654;BME280;68687;52.030;7.110;2023-07-30T04:41:20;100242.13;;;13.72;100.00
41654;BME280;68687;52.030;7.110;2023-07-30T04:43:45;100247.25;;;13.80;100.00
41654;BME280;68687;52.030;7.110;2023-07-30T04:46:11;100242.50;;;13.76;100.00
41654;BME280;68687;52.030;7.110;2023-07-30T04:48:36;100248.34;;;13.73;100.00
41654;BME280;68687;52.030;7.110;2023-07-30T04:51:02;100233.41;;;13.70;100.00
41654;BME280;68687;52.030;7.110;2023-07-30T04:53:27;100241.88;;;13.80;100.00
41654;BME280;68687;52.030;7.110;2023-07-30T04:55:56;100241.00;;;13.86;100.00
41654;BME280;68687;52.030;7.110;2023-07-30T04:58:24;100237.88;;;13.89;100.00
41654;BME280;68687;52.030;7.110;2023-07-30T05:00:49;100237.84;;;13.96;100.00
41654;BME280;68687;52.030;7.110;2023-07-30T05:03:15;100247.16;;;14.07;100.00
41654;BME280;68687;52.030;7.110;2023-07-30T05:05:41;100232.25;;;13.91;100.00
41654;BME280;68687;52.030;7.110;2023-07-30T05:08:06;100241.78;;;14.00;100.00
41654;BME280;68687;52.030;7.110;2023-07-30T05:10:32;100249.91;;;13.93;100.00
41654;BME280;68687;52.030;7.110;2023-07-30T05:12:57;100249.25;;;14.05;100.00
41654;BME280;68687;52.030;7.110;2023-07-30T05:15:23;100253.97;;;14.09;100.00
41654;BME280;68687;52.030;7.110;2023-07-30T05:17:48;100247.59;;;14.04;100.00
41654;BME280;68687;52.030;7.110;2023-07-30T05:20:13;100253.69;;;14.24;100.00
41654;BME280;68687;52.030;7.110;2023-07-30T05:22:39;100252.66;;;14.25;100.00
41654;BME280;68687;52.030;7.110;2023-07-30T05:25:05;100249.09;;;14.31;100.00
41654;BME280;68687;52.030;7.110;2023-07-30T05:27:30;100246.22;;;14.26;100.00
41654;BME280;68687;52.030;7.110;2023-07-30T05:29:57;100252.84;;;14.30;100.00
41654;BME280;68687;52.030;7.110;2023-07-30T05:32:22;100244.53;;;14.32;100.00
41654;BME280;68687;52.030;7.110;2023-07-30T05:34:47;100254.84;;;14.41;100.00
41654;BME280;68687;52.030;7.110;2023-07-30T05:37:13;100256.09;;;14.39;100.00
41654;BME280;68687;52.030;7.110;2023-07-30T05:39:38;100253.28;;;14.27;100.00
41654;BME280;68687;52.030;7.110;2023-07-30T05:42:04;100257.38;;;14.36;100.00
41654;BME280;68687;52.030;7.110;2023-07-30T05:44:29;100248.16;;;14.50;100.00
41654;BME280;68687;52.030;7.110;2023-07-30T05:46:54;100248.38;;;14.42;100.00
41654;BME280;68687;52.030;7.110;2023-07-30T05:49:20;100251.91;;;14.49;100.00
41654;BME280;68687;52.030;7.110;2023-07-30T05:51:45;100246.56;;;14.36;100.00
41654;BME280;68687;52.030;7.110;2023-07-30T05:54:11;100245.44;;;14.50;100.00
41654;BME280;68687;52.030;7.110;2023-07-30T05:56:37;100252.31;;;14.53;100.00
41654;BME280;68687;52.030;7.110;2023-07-30T05:59:02;100246.13;;;14.39;100.00
41654;BME280;68687;52.030;7.110;2023-07-30T06:01:27;100259.75;;;14.58;100.00
41654;BME280;68687;52.030;7.110;2023-07-30T06:03:53;100256.13;;;14.70;100.00
41654;BME280;68687;52.030;7.110;2023-07-30T06:06:18;100257.56;;;14.73;100.00
41654;BME280;68687;52.030;7.110;2023-07-30T06:08:51;100252.97;;;14.73;100.00
41654;BME280;68687;52.030;7.110;2023-07-30T06:11:17;100258.06;;;14.88;100.00
41654;BME280;68687;52.030;7.110;2023-07-30T06:13:42;100263.31;;;14.83;100.00
41654;BME280;68687;52.030;7.110;2023-07-30T06:16:07;100264.00;;;14.97;100.00
41654;BME280;68687;52.030;7.110;2023-07-30T06:18:33;100262.91;;;15.04;100.00
41654;BME280;68687;52.030;7.110;2023-07-30T06:20:58;100264.69;;;14.92;100.00
41654;BME280;68687;52.030;7.110;2023-07-30T06:23:24;100260.53;;;15.14;100.00
41654;BME280;68687;52.030;7.110;2023-07-30T06:25:49;100259.34;;;15.29;100.00
41654;BME280;68687;52.030;7.110;2023-07-30T06:28:14;100253.34;;;15.27;100.00
41654;BME280;68687;52.030;7.110;2023-07-30T06:30:40;100263.25;;;15.33;100.00
41654;BME280;68687;52.030;7.110;2023-07-30T06:33:05;100255.38;;;15.31;100.00
41654;BME280;68687;52.030;7.110;2023-07-30T06:35:31;100257.16;;;15.19;100.00
41654;BME280;68687;52.030;7.110;2023-07-30T06:37:56;100279.81;;;15.43;100.00
41654;BME280;68687;52.030;7.110;2023-07-30T06:40:21;100272.97;;;15.40;100.00
41654;BME280;68687;52.030;7.110;2023-07-30T06:42:46;100269.50;;;15.33;100.00
41654;BME280;68687;52.030;7.110;2023-07-30T06:45:14;100269.19;;;15.23;100.00
41654;BME280;68687;52.030;7.110;2023-07-30T06:47:39;100270.16;;;15.29;100.00
41654;BME280;68687;52.030;7.110;2023-07-30T06:50:05;100281.53;;;15.56;100.00
41654;BME280;68687;52.030;7.110;2023-07-30T06:52:33;100281.06;;;15.65;100.00
41654;BME280;68687;52.030;7.110;2023-07-30T06:54:58;100273.03;;;15.34;100.00
41654;BME280;68687;52.030;7.110;2023-07-30T06:57:24;100284.19;;;15.44;100.00
41654;BME280;68687;52.030;7.110;2023-07-30T06:59:49;100287.78;;;15.38;100.00
41654;BME280;68687;52.030;7.110;2023-07-30T07:02:14;100293.50;;;15.48;100.00
41654;BME280;68687;52.030;7.110;2023-07-30T07:04:40;100293.94;;;15.45;100.00
41654;BME280;68687;52.030;7.110;2023-07-30T07:07:05;100285.22;;;15.43;100.00
41654;BME280;68687;52.030;7.110;2023-07-30T07:09:30;100284.31;;;15.49;100.00
41654;BME280;68687;52.030;7.110;2023-07-30T07:11:56;100289.25;;;15.59;100.00
41654;BME280;68687;52.030;7.110;2023-07-30T07:14:21;100288.41;;;15.58;100.00
41654;BME280;68687;52.030;7.110;2023-07-30T07:16:47;100282.59;;;15.61;100.00
41654;BME280;68687;52.030;7.110;2023-07-30T07:19:13;100292.50;;;15.67;100.00
41654;BME280;68687;52.030;7.110;2023-07-30T07:21:39;100294.69;;;15.52;100.00
41654;BME280;68687;52.030;7.110;2023-07-30T07:24:04;100295.88;;;15.63;100.00
41654;BME280;68687;52.030;7.110;2023-07-30T07:26:29;100302.72;;;15.65;100.00
41654;BME280;68687;52.030;7.110;2023-07-30T07:28:56;100308.81;;;15.54;100.00
41654;BME280;68687;52.030;7.110;2023-07-30T07:31:21;100304.84;;;15.38;100.00
41654;BME280;68687;52.030;7.110;2023-07-30T07:33:46;100311.81;;;15.46;100.00
41654;BME280;68687;52.030;7.110;2023-07-30T07:36:34;100305.28;;;15.54;100.00
41654;BME280;68687;52.030;7.110;2023-07-30T07:39:35;100304.91;;;15.50;100.00
41654;BME280;68687;52.030;7.110;2023-07-30T07:51:27;100301.81;;;15.90;100.00
41654;BME280;68687;52.030;7.110;2023-07-30T07:53:52;100310.59;;;15.85;100.00
41654;BME280;68687;52.030;7.110;2023-07-30T07:56:18;100303.75;;;16.01;100.00
41654;BME280;68687;52.030;7.110;2023-07-30T07:58:43;100305.47;;;16.14;100.00
41654;BME280;68687;52.030;7.110;2023-07-30T08:01:08;100311.13;;;16.12;100.00
41654;BME280;68687;52.030;7.110;2023-07-30T08:03:34;100311.41;;;16.22;100.00
41654;BME280;68687;52.030;7.110;2023-07-30T08:05:59;100313.16;;;16.17;100.00
41654;BME280;68687;52.030;7.110;2023-07-30T08:08:26;100318.03;;;16.26;100.00
41654;BME280;68687;52.030;7.110;2023-07-30T08:10:51;100316.78;;;16.41;100.00
41654;BME280;68687;52.030;7.110;2023-07-30T08:13:16;100321.69;;;16.32;100.00
41654;BME280;68687;52.030;7.110;2023-07-30T08:15:42;100320.75;;;16.26;100.00
41654;BME280;68687;52.030;7.110;2023-07-30T08:18:07;100326.34;;;16.43;100.00
41654;BME280;68687;52.030;7.110;2023-07-30T08:20:33;100320.38;;;16.53;99.96
41654;BME280;68687;52.030;7.110;2023-07-30T08:22:58;100318.88;;;16.57;99.53
41654;BME280;68687;52.030;7.110;2023-07-30T08:25:23;100308.94;;;16.51;98.75
41654;BME280;68687;52.030;7.110;2023-07-30T08:27:49;100311.03;;;16.67;98.85
41654;BME280;68687;52.030;7.110;2023-07-30T08:30:14;100315.13;;;16.99;97.33
41654;BME280;68687;52.030;7.110;2023-07-30T08:32:39;100305.47;;;17.15;96.98
41654;BME280;68687;52.030;7.110;2023-07-30T08:35:07;100302.16;;;17.13;96.02
41654;BME280;68687;52.030;7.110;2023-07-30T08:37:32;100310.69;;;17.40;96.18
41654;BME280;68687;52.030;7.110;2023-07-30T08:39:58;100318.91;;;17.22;95.77
41654;BME280;68687;52.030;7.110;2023-07-30T08:42:24;100319.06;;;17.27;95.26
41654;BME280;68687;52.030;7.110;2023-07-30T08:44:49;100320.72;;;17.28;95.57
41654;BME280;68687;52.030;7.110;2023-07-30T08:47:15;100325.66;;;17.31;94.56
41654;BME280;68687;52.030;7.110;2023-07-30T08:49:40;100318.84;;;17.28;94.77
41654;BME280;68687;52.030;7.110;2023-07-30T08:52:08;100308.69;;;17.36;94.39
41654;BME280;68687;52.030;7.110;2023-07-30T08:54:36;100308.09;;;17.57;92.52
41654;BME280;68687;52.030;7.110;2023-07-30T08:57:02;100323.06;;;17.95;92.41
41654;BME280;68687;52.030;7.110;2023-07-30T08:59:31;100316.09;;;18.39;89.21
41654;BME280;68687;52.030;7.110;2023-07-30T09:01:59;100317.44;;;18.53;88.51
41654;BME280;68687;52.030;7.110;2023-07-30T09:04:26;100318.47;;;18.35;87.98
41654;BME280;68687;52.030;7.110;2023-07-30T09:06:54;100320.13;;;18.25;88.50
41654;BME280;68687;52.030;7.110;2023-07-30T09:09:19;100319.16;;;18.42;87.09
41654;BME280;68687;52.030;7.110;2023-07-30T09:11:51;100321.47;;;18.50;86.29
41654;BME280;68687;52.030;7.110;2023-07-30T09:14:19;100313.56;;;18.77;86.21
41654;BME280;68687;52.030;7.110;2023-07-30T09:16:45;100311.69;;;19.11;83.24
41654;BME280;68687;52.030;7.110;2023-07-30T09:19:16;100318.50;;;18.80;82.60
41654;BME280;68687;52.030;7.110;2023-07-30T09:21:41;100317.31;;;19.55;82.80
41654;BME280;68687;52.030;7.110;2023-07-30T09:24:06;100315.84;;;19.86;83.15
41654;BME280;68687;52.030;7.110;2023-07-30T09:26:46;100321.88;;;20.10;80.23
41654;BME280;68687;52.030;7.110;2023-07-30T09:29:12;100323.72;;;20.04;78.23
41654;BME280;68687;52.030;7.110;2023-07-30T09:31:48;100324.34;;;20.12;79.39
41654;BME280;68687;52.030;7.110;2023-07-30T09:34:22;100325.69;;;20.09;76.05
41654;BME280;68687;52.030;7.110;2023-07-30T09:36:50;100316.72;;;20.14;75.17
41654;BME280;68687;52.030;7.110;2023-07-30T09:39:23;100319.09;;;20.05;74.62
41654;BME280;68687;52.030;7.110;2023-07-30T09:41:50;100311.03;;;19.93;77.62
41654;BME280;68687;52.030;7.110;2023-07-30T09:44:17;100314.63;;;19.99;77.00
41654;BME280;68687;52.030;7.110;2023-07-30T09:46:44;100308.31;;;20.15;74.06
41654;BME280;68687;52.030;7.110;2023-07-30T09:49:10;100316.66;;;20.52;75.59
41654;BME280;68687;52.030;7.110;2023-07-30T09:51:37;100317.25;;;21.13;72.63
41654;BME280;68687;52.030;7.110;2023-07-30T09:54:03;100323.97;;;20.74;71.95
41654;BME280;68687;52.030;7.110;2023-07-30T09:56:28;100321.47;;;21.26;69.91
41654;BME280;68687;52.030;7.110;2023-07-30T09:58:54;100326.25;;;21.14;71.46
41654;BME280;68687;52.030;7.110;2023-07-30T10:01:22;100335.03;;;20.62;68.38
41654;BME280;68687;52.030;7.110;2023-07-30T10:03:49;100336.53;;;20.75;67.99
41654;BME280;68687;52.030;7.110;2023-07-30T10:06:15;100335.88;;;20.19;70.58
41654;BME280;68687;52.030;7.110;2023-07-30T10:08:42;100332.44;;;20.50;69.72
41654;BME280;68687;52.030;7.110;2023-07-30T10:11:09;100332.56;;;20.60;69.60
41654;BME280;68687;52.030;7.110;2023-07-30T10:13:36;100330.47;;;20.67;69.95
41654;BME280;68687;52.030;7.110;2023-07-30T10:16:02;100337.06;;;21.31;67.63
41654;BME280;68687;52.030;7.110;2023-07-30T10:18:41;100326.81;;;21.48;67.96
41654;BME280;68687;52.030;7.110;2023-07-30T10:21:07;100323.97;;;21.33;69.39
41654;BME280;68687;52.030;7.110;2023-07-30T10:23:34;100314.88;;;20.63;66.60
41654;BME280;68687;52.030;7.110;2023-07-30T10:26:09;100309.97;;;19.56;68.35
41654;BME280;68687;52.030;7.110;2023-07-30T10:28:35;100329.72;;;19.68;70.07
41654;BME280;68687;52.030;7.110;2023-07-30T10:31:06;100324.56;;;19.50;71.22
41654;BME280;68687;52.030;7.110;2023-07-30T10:34:01;100330.16;;;19.98;73.98
41654;BME280;68687;52.030;7.110;2023-07-30T10:36:33;100335.31;;;20.17;72.47
41654;BME280;68687;52.030;7.110;2023-07-30T10:41:39;100323.31;;;20.40;71.10
41654;BME280;68687;52.030;7.110;2023-07-30T10:44:05;100332.09;;;20.42;69.93
41654;BME280;68687;52.030;7.110;2023-07-30T10:46:30;100338.28;;;20.15;70.22
41654;BME280;68687;52.030;7.110;2023-07-30T10:48:56;100335.41;;;20.27;71.54
41654;BME280;68687;52.030;7.110;2023-07-30T10:51:21;100338.81;;;19.73;72.08
41654;BME280;68687;52.030;7.110;2023-07-30T10:53:49;100335.16;;;19.85;71.68
41654;BME280;68687;52.030;7.110;2023-07-30T10:56:22;100343.84;;;19.82;71.20
41654;BME280;68687;52.030;7.110;2023-07-30T10:58:50;100341.00;;;20.15;70.63
41654;BME280;68687;52.030;7.110;2023-07-30T11:01:16;100336.00;;;20.29;69.57
41654;BME280;68687;52.030;7.110;2023-07-30T11:03:41;100352.59;;;20.49;69.79
41654;BME280;68687;52.030;7.110;2023-07-30T11:06:07;100350.97;;;20.48;67.67
41654;BME280;68687;52.030;7.110;2023-07-30T11:08:39;100351.91;;;20.59;65.85
41654;BME280;68687;52.030;7.110;2023-07-30T11:11:07;100341.19;;;20.52;66.46
41654;BME280;68687;52.030;7.110;2023-07-30T11:13:37;100348.50;;;21.01;65.24
41654;BME280;68687;52.030;7.110;2023-07-30T11:16:05;100344.91;;;20.95;66.23
41654;BME280;68687;52.030;7.110;2023-07-30T11:18:31;100333.75;;;20.96;66.41
41654;BME280;68687;52.030;7.110;2023-07-30T11:21:06;100338.91;;;20.66;67.29
41654;BME280;68687;52.030;7.110;2023-07-30T11:23:32;100343.06;;;20.74;64.37
41654;BME280;68687;52.030;7.110;2023-07-30T11:26:00;100349.94;;;20.54;65.50
41654;BME280;68687;52.030;7.110;2023-07-30T11:28:30;100354.09;;;20.57;64.17
41654;BME280;68687;52.030;7.110;2023-07-30T11:30:58;100341.66;;;20.44;62.82
41654;BME280;68687;52.030;7.110;2023-07-30T11:33:24;100355.66;;;20.31;63.67
41654;BME280;68687;52.030;7.110;2023-07-30T11:35:50;100342.53;;;20.28;63.95
41654;BME280;68687;52.030;7.110;2023-07-30T11:38:16;100336.19;;;20.22;65.06
41654;BME280;68687;52.030;7.110;2023-07-30T11:40:42;100358.81;;;20.23;65.75
41654;BME280;68687;52.030;7.110;2023-07-30T11:43:08;100360.22;;;20.03;65.11
41654;BME280;68687;52.030;7.110;2023-07-30T11:45:33;100361.75;;;19.99;66.31
41654;BME280;68687;52.030;7.110;2023-07-30T11:48:07;100357.78;;;19.85;67.52
41654;BME280;68687;52.030;7.110;2023-07-30T11:50:50;100367.47;;;19.98;68.21
41654;BME280;68687;52.030;7.110;2023-07-30T11:53:17;100367.47;;;19.98;67.86
41654;BME280;68687;52.030;7.110;2023-07-30T11:55:43;100363.34;;;19.95;68.40
41654;BME280;68687;52.030;7.110;2023-07-30T11:58:10;100355.44;;;20.16;67.18
41654;BME280;68687;52.030;7.110;2023-07-30T12:00:37;100349.19;;;20.15;66.04
41654;BME280;68687;52.030;7.110;2023-07-30T12:03:03;100349.72;;;19.95;65.89
41654;BME280;68687;52.030;7.110;2023-07-30T12:05:36;100347.31;;;19.77;65.88
41654;BME280;68687;52.030;7.110;2023-07-30T12:08:12;100369.03;;;20.11;64.08
41654;BME280;68687;52.030;7.110;2023-07-30T12:10:43;100360.34;;;20.14;63.75
41654;BME280;68687;52.030;7.110;2023-07-30T12:13:14;100375.56;;;20.31;66.22
41654;BME280;68687;52.030;7.110;2023-07-30T12:16:03;100384.88;;;19.75;65.03
41654;BME280;68687;52.030;7.110;2023-07-30T12:18:28;100382.22;;;19.80;65.08
41654;BME280;68687;52.030;7.110;2023-07-30T12:21:00;100386.16;;;19.89;63.25
41654;BME280;68687;52.030;7.110;2023-07-30T12:23:25;100382.00;;;20.03;64.99
41654;BME280;68687;52.030;7.110;2023-07-30T12:25:51;100383.69;;;19.88;64.68
41654;BME280;68687;52.030;7.110;2023-07-30T12:28:16;100391.28;;;19.69;63.68
41654;BME280;68687;52.030;7.110;2023-07-30T12:30:47;100384.56;;;19.55;64.99
41654;BME280;68687;52.030;7.110;2023-07-30T12:33:13;100387.41;;;19.65;66.10
41654;BME280;68687;52.030;7.110;2023-07-30T12:35:38;100386.09;;;19.84;64.96
41654;BME280;68687;52.030;7.110;2023-07-30T12:38:07;100377.81;;;20.18;64.71
41654;BME280;68687;52.030;7.110;2023-07-30T12:40:35;100377.00;;;20.39;64.07
41654;BME280;68687;52.030;7.110;2023-07-30T12:43:02;100386.88;;;20.40;63.87
41654;BME280;68687;52.030;7.110;2023-07-30T12:45:29;100374.75;;;20.31;63.89
41654;BME280;68687;52.030;7.110;2023-07-30T12:47:58;100370.03;;;20.26;64.47
41654;BME280;68687;52.030;7.110;2023-07-30T12:50:23;100374.66;;;20.26;63.48
41654;BME280;68687;52.030;7.110;2023-07-30T12:52:48;100376.72;;;20.57;65.12